Time,TemperatureF,DewpointF,PressureIn,WindDirection,WindDirectionDegrees,WindSpeedMPH,WindSpeedGustMPH,Humidity,HourlyPrecipIn,Conditions,Clouds,dailyrainin,SoftwareType,DateUTC
2013-01-26 00:05:00,31.4,22.4,29.75,WNW,291,0.0,5.0,69,0.00,,,0.00,Wunderground v.1.15,2013-01-26 06:05:00,
2013-01-26 00:10:00,31.3,22.3,29.75,WNW,292,0.0,1.0,69,0.00,,,0.00,Wunderground v.1.15,2013-01-26 06:10:00,
2013-01-26 00:16:00,31.1,22.5,29.76,WNW,293,0.0,6.0,70,0.00,,,0.00,Wunderground v.1.15,2013-01-26 06:16:00,
2013-01-26 00:21:00,31.0,22.4,29.76,WNW,294,1.0,1.0,70,0.00,,,0.00,Wunderground v.1.15,2013-01-26 06:21:00,
2013-01-26 00:27:00,30.8,22.5,29.76,NNW,332,4.0,4.0,71,0.00,,,0.00,Wunderground v.1.15,2013-01-26 06:27:00,
2013-01-26 00:32:00,30.7,22.7,29.77,NNW,334,0.0,2.0,72,0.00,,,0.00,Wunderground v.1.15,2013-01-26 06:32:00,
2013-01-26 00:38:00,30.2,22.3,29.77,NNW,348,5.0,6.0,72,0.00,,,0.00,Wunderground v.1.15,2013-01-26 06:38:00,
2013-01-26 00:43:00,29.6,22.0,29.77,NNW,332,6.0,6.0,73,0.00,,,0.00,Wunderground v.1.15,2013-01-26 06:43:00,
2013-01-26 00:48:00,29.1,21.5,29.77,NW,312,2.0,7.0,73,0.00,,,0.00,Wunderground v.1.15,2013-01-26 06:48:00,
2013-01-26 00:54:00,28.4,20.8,29.78,NNW,327,5.0,6.0,73,0.00,,,0.00,Wunderground v.1.15,2013-01-26 06:54:00,
2013-01-26 01:00:00,27.8,20.3,29.78,NNW,330,2.0,4.0,73,0.00,,,0.00,Wunderground v.1.15,2013-01-26 07:00:00,
2013-01-26 01:06:00,27.3,19.8,29.79,NNW,345,4.0,5.0,73,0.00,,,0.00,Wunderground v.1.15,2013-01-26 07:06:00,
2013-01-26 01:11:00,26.9,19.4,29.79,NNW,336,6.0,6.0,73,0.00,,,0.00,Wunderground v.1.15,2013-01-26 07:11:00,
2013-01-26 01:16:00,26.4,17.6,29.79,NNW,341,6.0,7.0,69,0.00,,,0.00,Wunderground v.1.15,2013-01-26 07:16:00,
2013-01-26 01:22:00,26.2,16.7,29.79,NNW,330,8.0,11.0,67,0.00,,,0.00,Wunderground v.1.15,2013-01-26 07:22:00,
2013-01-26 01:27:00,25.9,16.4,29.79,NNW,334,5.0,11.0,67,0.00,,,0.00,Wunderground v.1.15,2013-01-26 07:27:00,
2013-01-26 01:32:00,25.6,-99.9,29.79,North,350,5.0,8.0,255,0.00,,,0.00,Wunderground v.1.15,2013-01-26 07:32:00,
2013-01-26 01:38:00,25.6,15.5,29.80,NNW,336,0.0,8.0,65,0.00,,,0.00,Wunderground v.1.15,2013-01-26 07:38:00,
2013-01-26 01:43:00,25.1,15.3,29.80,NNW,340,2.0,6.0,66,0.00,,,0.00,Wunderground v.1.15,2013-01-26 07:43:00,
2013-01-26 01:48:00,-999.9,-99.9,29.80,NNW,339,5.0,6.0,65,0.00,,,0.00,Wunderground v.1.15,2013-01-26 07:48:00,
2013-01-26 01:54:00,24.6,14.9,29.80,NNW,335,6.0,6.0,66,0.00,,,0.00,Wunderground v.1.15,2013-01-26 07:54:00,
2013-01-26 01:59:00,24.5,15.1,29.80,NNW,335,0.0,6.0,67,0.00,,,0.00,Wunderground v.1.15,2013-01-26 07:59:00,
2013-01-26 02:04:00,24.2,14.8,29.80,NNW,335,0.0,2.0,67,0.00,,,0.00,Wunderground v.1.15,2013-01-26 08:04:00,
2013-01-26 02:09:00,24.0,14.6,29.80,NNW,335,0.0,2.0,67,0.00,,,0.00,Wunderground v.1.15,2013-01-26 08:09:00,
2013-01-26 02:14:00,23.8,14.4,29.80,NNW,335,0.0,4.0,67,0.00,,,0.00,Wunderground v.1.15,2013-01-26 08:14:00,
2013-01-26 02:19:00,23.9,-99.9,29.80,NNW,335,0.0,5.0,255,0.00,,,0.00,Wunderground v.1.15,2013-01-26 08:19:00,
2013-01-26 02:24:00,23.6,14.6,29.80,NNW,335,0.0,4.0,68,0.00,,,0.00,Wunderground v.1.15,2013-01-26 08:24:00,
2013-01-26 02:31:00,23.4,14.0,29.80,NNW,334,0.0,1.0,67,0.00,,,0.00,Wunderground v.1.15,2013-01-26 08:31:00,
2013-01-26 02:37:00,23.6,13.9,29.80,NNW,335,2.0,5.0,66,0.00,,,0.00,Wunderground v.1.15,2013-01-26 08:37:00,
2013-01-26 02:42:00,23.2,13.5,29.80,NNW,335,0.0,2.0,66,0.00,,,0.00,Wunderground v.1.15,2013-01-26 08:42:00,
2013-01-26 02:47:00,23.0,13.0,29.80,NNW,335,0.0,2.0,65,0.00,,,0.00,Wunderground v.1.15,2013-01-26 08:47:00,
2013-01-26 02:52:00,22.9,12.9,29.80,NNW,335,0.0,0.0,65,0.00,,,0.00,Wunderground v.1.15,2013-01-26 08:52:00,
2013-01-26 02:58:00,22.7,12.7,29.80,NNW,335,0.0,5.0,65,0.00,,,0.00,Wunderground v.1.15,2013-01-26 08:58:00,
2013-01-26 03:03:00,22.7,-99.9,29.80,NNW,335,0.0,2.0,255,0.00,,,0.00,Wunderground v.1.15,2013-01-26 09:03:00,
2013-01-26 03:08:00,22.4,12.8,29.80,NNW,335,0.0,2.0,66,0.00,,,0.00,Wunderground v.1.15,2013-01-26 09:08:00,
2013-01-26 03:14:00,22.2,12.6,29.80,NNW,335,4.0,4.0,66,0.00,,,0.00,Wunderground v.1.15,2013-01-26 09:14:00,
2013-01-26 03:19:00,22.1,12.8,29.80,NNW,335,0.0,4.0,67,0.00,,,0.00,Wunderground v.1.15,2013-01-26 09:19:00,
2013-01-26 03:24:00,22.0,12.7,29.80,NNW,335,1.0,5.0,67,0.00,,,0.00,Wunderground v.1.15,2013-01-26 09:24:00,
2013-01-26 03:30:00,21.8,12.9,29.80,NNW,335,0.0,5.0,68,0.00,,,0.00,Wunderground v.1.15,2013-01-26 09:30:00,
2013-01-26 03:35:00,21.6,12.3,29.79,NNW,337,0.0,7.0,67,0.00,,,0.00,Wunderground v.1.15,2013-01-26 09:35:00,
2013-01-26 03:40:00,21.5,11.9,29.79,North,355,5.0,9.0,66,0.00,,,0.00,Wunderground v.1.15,2013-01-26 09:40:00,
2013-01-26 03:46:00,21.3,11.7,29.79,North,355,0.0,6.0,66,0.00,,,0.00,Wunderground v.1.15,2013-01-26 09:46:00,
2013-01-26 03:51:00,21.1,11.5,29.79,North,350,0.0,7.0,66,0.00,,,0.00,Wunderground v.1.15,2013-01-26 09:51:00,
2013-01-26 03:57:00,20.9,11.0,29.80,North,350,0.0,8.0,65,0.00,,,0.00,Wunderground v.1.15,2013-01-26 09:57:00,
2013-01-26 04:02:00,20.8,10.9,29.79,North,5,3.0,5.0,65,0.00,,,0.00,Wunderground v.1.15,2013-01-26 10:02:00,
2013-01-26 04:07:00,20.6,10.0,29.80,NNW,348,1.0,5.0,63,0.00,,,0.00,Wunderground v.1.15,2013-01-26 10:07:00,
2013-01-26 04:13:00,20.4,9.4,29.80,NNW,346,7.0,8.0,62,0.00,,,0.00,Wunderground v.1.15,2013-01-26 10:13:00,
2013-01-26 04:20:00,20.2,8.9,29.80,NNW,333,5.0,5.0,61,0.00,,,0.00,Wunderground v.1.15,2013-01-26 10:20:00,
2013-01-26 04:26:00,19.9,8.6,29.81,North,349,4.0,12.0,61,0.00,,,0.00,Wunderground v.1.15,2013-01-26 10:26:00,
2013-01-26 04:32:00,19.7,8.8,29.81,NNW,347,0.0,6.0,62,0.00,,,0.00,Wunderground v.1.15,2013-01-26 10:32:00,
2013-01-26 04:37:00,19.5,8.6,29.81,NNW,340,2.0,8.0,62,0.00,,,0.00,Wunderground v.1.15,2013-01-26 10:37:00,
2013-01-26 04:43:00,19.3,8.4,29.81,NNW,342,4.0,7.0,62,0.00,,,0.00,Wunderground v.1.15,2013-01-26 10:43:00,
2013-01-26 04:48:00,19.1,8.6,29.81,NNW,342,0.0,7.0,63,0.00,,,0.00,Wunderground v.1.15,2013-01-26 10:48:00,
2013-01-26 04:54:00,18.9,8.4,29.81,NNW,342,0.0,6.0,63,0.00,,,0.00,Wunderground v.1.15,2013-01-26 10:54:00,
2013-01-26 04:59:00,18.8,8.3,29.82,NNW,342,0.0,6.0,63,0.00,,,0.00,Wunderground v.1.15,2013-01-26 10:59:00,
2013-01-26 05:04:00,18.7,8.5,29.82,North,5,5.0,9.0,64,0.00,,,0.00,Wunderground v.1.15,2013-01-26 11:04:00,
2013-01-26 05:09:00,18.5,8.7,29.82,North,5,1.0,9.0,65,0.00,,,0.00,Wunderground v.1.15,2013-01-26 11:09:00,
2013-01-26 05:14:00,18.4,8.6,29.82,North,5,0.0,5.0,65,0.00,,,0.00,Wunderground v.1.15,2013-01-26 11:14:00,
2013-01-26 05:19:00,18.3,8.5,29.82,North,360,1.0,6.0,65,0.00,,,0.00,Wunderground v.1.15,2013-01-26 11:19:00,
2013-01-26 05:24:00,18.2,8.7,29.82,North,360,0.0,5.0,66,0.00,,,0.00,Wunderground v.1.15,2013-01-26 11:24:00,
2013-01-26 05:29:00,18.1,8.6,29.82,North,360,0.0,5.0,66,0.00,,,0.00,Wunderground v.1.15,2013-01-26 11:29:00,
2013-01-26 05:34:00,18.0,8.9,29.83,North,360,5.0,7.0,67,0.00,,,0.00,Wunderground v.1.15,2013-01-26 11:34:00,
2013-01-26 05:40:00,17.9,8.8,29.83,North,360,0.0,1.0,67,0.00,,,0.00,Wunderground v.1.15,2013-01-26 11:40:00,
2013-01-26 05:45:00,18.1,8.3,29.83,North,5,0.0,4.0,65,0.00,,,0.00,Wunderground v.1.15,2013-01-26 11:45:00,
2013-01-26 05:50:00,17.8,8.7,29.83,North,360,2.0,2.0,67,0.00,,,0.00,Wunderground v.1.15,2013-01-26 11:50:00,
2013-01-26 05:55:00,17.7,8.6,29.83,North,360,0.0,2.0,67,0.00,,,0.00,Wunderground v.1.15,2013-01-26 11:55:00,
2013-01-26 06:01:00,17.6,8.8,29.83,North,360,0.0,0.0,68,0.00,,,0.00,Wunderground v.1.15,2013-01-26 12:01:00,
2013-01-26 06:05:00,17.5,8.7,29.84,North,360,1.0,2.0,68,0.00,,,0.00,Wunderground v.1.15,2013-01-26 12:05:00,
2013-01-26 06:11:00,17.5,8.7,29.84,North,360,0.0,0.0,68,0.00,,,0.00,Wunderground v.1.15,2013-01-26 12:11:00,
2013-01-26 06:17:00,17.3,8.5,29.84,North,360,0.0,0.0,68,0.00,,,0.00,Wunderground v.1.15,2013-01-26 12:17:00,
2013-01-26 06:22:00,17.3,8.5,29.85,North,360,0.0,0.0,68,0.00,,,0.00,Wunderground v.1.15,2013-01-26 12:22:00,
2013-01-26 06:28:00,17.2,8.4,29.85,North,360,0.0,0.0,68,0.00,,,0.00,Wunderground v.1.15,2013-01-26 12:28:00,
2013-01-26 06:33:00,17.2,8.4,29.85,North,360,0.0,2.0,68,0.00,,,0.00,Wunderground v.1.15,2013-01-26 12:33:00,
2013-01-26 06:38:00,17.1,8.3,29.85,North,360,0.0,2.0,68,0.00,,,0.00,Wunderground v.1.15,2013-01-26 12:38:00,
2013-01-26 06:43:00,17.0,8.6,29.85,North,360,0.0,0.0,69,0.00,,,0.00,Wunderground v.1.15,2013-01-26 12:43:00,
2013-01-26 06:49:00,16.9,8.5,29.86,North,360,0.0,2.0,69,0.00,,,0.00,Wunderground v.1.15,2013-01-26 12:49:00,
2013-01-26 06:55:00,16.8,8.4,29.86,North,360,0.0,1.0,69,0.00,,,0.00,Wunderground v.1.15,2013-01-26 12:55:00,
2013-01-26 07:00:00,16.7,8.3,29.86,North,360,0.0,0.0,69,0.00,,,0.00,Wunderground v.1.15,2013-01-26 13:00:00,
2013-01-26 07:06:00,16.6,8.5,29.86,North,360,0.0,0.0,70,0.00,,,0.00,Wunderground v.1.15,2013-01-26 13:06:00,
2013-01-26 07:12:00,16.5,8.4,29.86,North,360,0.0,0.0,70,0.00,,,0.00,Wunderground v.1.15,2013-01-26 13:12:00,
2013-01-26 07:17:00,16.4,8.3,29.87,North,360,0.0,0.0,70,0.00,,,0.00,Wunderground v.1.15,2013-01-26 13:17:00,
2013-01-26 07:23:00,16.4,8.3,29.88,North,360,0.0,0.0,70,0.00,,,0.00,Wunderground v.1.15,2013-01-26 13:23:00,
2013-01-26 07:28:00,16.3,8.2,29.89,North,360,0.0,1.0,70,0.00,,,0.00,Wunderground v.1.15,2013-01-26 13:28:00,
2013-01-26 07:34:00,16.3,8.2,29.89,North,360,0.0,0.0,70,0.00,,,0.00,Wunderground v.1.15,2013-01-26 13:34:00,
2013-01-26 07:39:00,16.3,8.2,29.89,North,360,0.0,0.0,70,0.00,,,0.00,Wunderground v.1.15,2013-01-26 13:39:00,
2013-01-26 07:44:00,16.3,8.2,29.89,North,360,0.0,0.0,70,0.00,,,0.00,Wunderground v.1.15,2013-01-26 13:44:00,
2013-01-26 07:50:00,16.4,8.6,29.89,North,360,0.0,0.0,71,0.00,,,0.00,Wunderground v.1.15,2013-01-26 13:50:00,
2013-01-26 07:55:00,16.5,8.7,29.89,North,360,0.0,0.0,71,0.00,,,0.00,Wunderground v.1.15,2013-01-26 13:55:00,
2013-01-26 08:00:00,16.7,8.9,29.89,North,360,0.0,0.0,71,0.00,,,0.00,Wunderground v.1.15,2013-01-26 14:00:00,
2013-01-26 08:05:00,17.0,8.9,29.89,North,360,0.0,3.0,70,0.00,,,0.00,Wunderground v.1.15,2013-01-26 14:05:00,
2013-01-26 08:11:00,17.2,9.1,29.89,North,360,0.0,1.0,70,0.00,,,0.00,Wunderground v.1.15,2013-01-26 14:11:00,
2013-01-26 08:16:00,17.4,9.0,29.89,North,360,0.0,4.0,69,0.00,,,0.00,Wunderground v.1.15,2013-01-26 14:16:00,
2013-01-26 08:21:00,17.7,9.2,29.89,North,360,0.0,0.0,69,0.00,,,0.00,Wunderground v.1.15,2013-01-26 14:21:00,
2013-01-26 08:26:00,18.1,9.3,29.89,North,360,5.0,5.0,68,0.00,,,0.00,Wunderground v.1.15,2013-01-26 14:26:00,
2013-01-26 08:31:00,18.5,9.4,29.88,NE,39,4.0,4.0,67,0.00,,,0.00,Wunderground v.1.15,2013-01-26 14:31:00,
2013-01-26 08:36:00,18.8,9.3,29.88,NE,47,3.0,6.0,66,0.00,,,0.00,Wunderground v.1.15,2013-01-26 14:36:00,
2013-01-26 08:41:00,19.1,9.3,29.89,NE,48,3.0,6.0,65,0.00,,,0.00,Wunderground v.1.15,2013-01-26 14:41:00,
2013-01-26 08:47:00,19.4,9.5,29.88,NE,48,0.0,6.0,65,0.00,,,0.00,Wunderground v.1.15,2013-01-26 14:47:00,
2013-01-26 08:52:00,19.7,9.5,29.88,NE,48,0.0,5.0,64,0.00,,,0.00,Wunderground v.1.15,2013-01-26 14:52:00,
2013-01-26 08:57:00,19.9,9.3,29.88,NE,50,3.0,5.0,63,0.00,,,0.00,Wunderground v.1.15,2013-01-26 14:57:00,
2013-01-26 09:03:00,20.2,9.2,29.88,NE,50,3.0,4.0,62,0.00,,,0.00,Wunderground v.1.15,2013-01-26 15:03:00,
2013-01-26 09:08:00,20.2,9.2,29.89,NE,52,4.0,5.0,62,0.00,,,0.00,Wunderground v.1.15,2013-01-26 15:08:00,
2013-01-26 09:13:00,20.3,9.3,29.89,NE,52,0.0,4.0,62,0.00,,,0.00,Wunderground v.1.15,2013-01-26 15:13:00,
2013-01-26 09:18:00,20.4,9.4,29.89,NE,46,0.0,6.0,62,0.00,,,0.00,Wunderground v.1.15,2013-01-26 15:18:00,
2013-01-26 09:23:00,20.6,10.0,29.89,NE,46,2.0,6.0,63,0.00,,,0.00,Wunderground v.1.15,2013-01-26 15:23:00,
2013-01-26 09:28:00,21.0,10.0,29.89,NE,46,0.0,6.0,62,0.00,,,0.00,Wunderground v.1.15,2013-01-26 15:28:00,
2013-01-26 09:33:00,21.3,10.3,29.89,NE,46,3.0,3.0,62,0.00,,,0.00,Wunderground v.1.15,2013-01-26 15:33:00,
2013-01-26 09:39:00,21.5,10.5,29.90,NE,46,0.0,3.0,62,0.00,,,0.00,Wunderground v.1.15,2013-01-26 15:39:00,
2013-01-26 09:44:00,22.0,10.2,29.89,ENE,69,0.0,4.0,60,0.00,,,0.00,Wunderground v.1.15,2013-01-26 15:44:00,
2013-01-26 09:49:00,22.5,10.7,29.89,ENE,70,0.0,4.0,60,0.00,,,0.00,Wunderground v.1.15,2013-01-26 15:49:00,
2013-01-26 09:54:00,22.7,10.9,29.90,ENE,70,0.0,1.0,60,0.00,,,0.00,Wunderground v.1.15,2013-01-26 15:54:00,
2013-01-26 09:59:00,23.1,10.5,29.89,ENE,61,4.0,5.0,58,0.00,,,0.00,Wunderground v.1.15,2013-01-26 15:59:00,
2013-01-26 10:04:00,23.1,10.9,29.89,ENE,63,0.0,4.0,59,0.00,,,0.00,Wunderground v.1.15,2013-01-26 16:04:00,
2013-01-26 10:11:00,23.5,11.3,29.90,ENE,63,1.0,1.0,59,0.00,,,0.00,Wunderground v.1.15,2013-01-26 16:11:00,
2013-01-26 10:16:00,23.9,11.3,29.90,ENE,66,1.0,6.0,58,0.00,,,0.00,Wunderground v.1.15,2013-01-26 16:16:00,
2013-01-26 10:22:00,24.1,11.0,29.90,ENE,66,0.0,1.0,57,0.00,,,0.00,Wunderground v.1.15,2013-01-26 16:22:00,
2013-01-26 10:27:00,24.3,10.8,29.90,ENE,66,0.0,6.0,56,0.00,,,0.00,Wunderground v.1.15,2013-01-26 16:27:00,
2013-01-26 10:32:00,24.4,11.3,29.91,ENE,66,0.0,0.0,57,0.00,,,0.00,Wunderground v.1.15,2013-01-26 16:32:00,
2013-01-26 10:37:00,24.8,11.7,29.91,ENE,66,0.0,0.0,57,0.00,,,0.00,Wunderground v.1.15,2013-01-26 16:37:00,
2013-01-26 10:42:00,25.0,11.5,29.91,SSE,163,0.0,7.0,56,0.00,,,0.00,Wunderground v.1.15,2013-01-26 16:42:00,
2013-01-26 10:48:00,24.8,10.9,29.91,SSE,163,0.0,7.0,55,0.00,,,0.00,Wunderground v.1.15,2013-01-26 16:48:00,
2013-01-26 10:53:00,25.2,11.3,29.91,SSE,163,7.0,7.0,55,0.00,,,0.00,Wunderground v.1.15,2013-01-26 16:53:00,
2013-01-26 10:59:00,26.2,11.8,29.91,SSE,154,2.0,7.0,54,0.00,,,0.00,Wunderground v.1.15,2013-01-26 16:59:00,
2013-01-26 11:04:00,25.3,11.0,29.91,SSE,148,2.0,2.0,54,0.00,,,0.00,Wunderground v.1.15,2013-01-26 17:04:00,
2013-01-26 11:09:00,25.6,11.2,29.91,SSE,148,0.0,4.0,54,0.00,,,0.00,Wunderground v.1.15,2013-01-26 17:09:00,
2013-01-26 11:14:00,25.9,11.1,29.91,SSE,153,0.0,5.0,53,0.00,,,0.00,Wunderground v.1.15,2013-01-26 17:14:00,
2013-01-26 11:19:00,26.2,11.4,29.91,SSE,154,2.0,5.0,53,0.00,,,0.00,Wunderground v.1.15,2013-01-26 17:19:00,
2013-01-26 11:24:00,26.3,11.5,29.91,SSE,157,0.0,5.0,53,0.00,,,0.00,Wunderground v.1.15,2013-01-26 17:24:00,
2013-01-26 11:29:00,26.6,11.7,29.91,SSE,157,0.0,5.0,53,0.00,,,0.00,Wunderground v.1.15,2013-01-26 17:29:00,
2013-01-26 11:35:00,27.2,11.4,29.90,SSE,157,0.0,0.0,51,0.00,,,0.00,Wunderground v.1.15,2013-01-26 17:35:00,
2013-01-26 11:40:00,27.3,11.5,29.90,South,175,4.0,4.0,51,0.00,,,0.00,Wunderground v.1.15,2013-01-26 17:40:00,
2013-01-26 11:45:00,27.4,11.6,29.90,SSE,161,0.0,6.0,51,0.00,,,0.00,Wunderground v.1.15,2013-01-26 17:45:00,
2013-01-26 11:51:00,27.9,12.1,29.89,SSE,161,0.0,2.0,51,0.00,,,0.00,Wunderground v.1.15,2013-01-26 17:51:00,
2013-01-26 11:56:00,28.6,11.8,29.89,SSE,161,0.0,4.0,49,0.00,,,0.00,Wunderground v.1.15,2013-01-26 17:56:00,
2013-01-26 12:01:00,28.9,12.6,29.88,SSE,159,0.0,4.0,50,0.00,,,0.00,Wunderground v.1.15,2013-01-26 18:01:00,
2013-01-26 12:06:00,29.6,12.3,29.88,SSE,159,0.0,4.0,48,0.00,,,0.00,Wunderground v.1.15,2013-01-26 18:06:00,
2013-01-26 12:11:00,29.9,13.0,29.87,SSE,159,0.0,5.0,49,0.00,,,0.00,Wunderground v.1.15,2013-01-26 18:11:00,
2013-01-26 12:17:00,30.0,12.7,29.87,SSE,159,0.0,5.0,48,0.00,,,0.00,Wunderground v.1.15,2013-01-26 18:17:00,
2013-01-26 12:22:00,30.1,12.7,29.87,SSE,160,0.0,5.0,48,0.00,,,0.00,Wunderground v.1.15,2013-01-26 18:22:00,
2013-01-26 12:27:00,30.2,12.8,29.87,SSE,149,2.0,6.0,48,0.00,,,0.00,Wunderground v.1.15,2013-01-26 18:27:00,
2013-01-26 12:33:00,30.5,13.1,29.86,East,84,3.0,6.0,48,0.00,,,0.00,Wunderground v.1.15,2013-01-26 18:33:00,
2013-01-26 12:38:00,31.4,-99.9,29.85,ENE,70,0.0,6.0,255,0.00,,,0.00,Wunderground v.1.15,2013-01-26 18:38:00,
2013-01-26 12:43:00,31.4,13.9,29.85,ENE,70,0.0,2.0,48,0.00,,,0.00,Wunderground v.1.15,2013-01-26 18:43:00,
2013-01-26 12:48:00,31.8,13.3,29.85,East,93,5.0,8.0,46,0.00,,,0.00,Wunderground v.1.15,2013-01-26 18:48:00,
2013-01-26 12:53:00,32.0,13.0,29.85,ESE,107,0.0,4.0,45,0.00,,,0.00,Wunderground v.1.15,2013-01-26 18:53:00,
2013-01-26 12:58:00,32.3,13.8,29.85,ESE,109,5.0,8.0,46,0.00,,,0.00,Wunderground v.1.15,2013-01-26 18:58:00,
2013-01-26 13:03:00,32.4,13.4,29.84,ESE,102,0.0,7.0,45,0.00,,,0.00,Wunderground v.1.15,2013-01-26 19:03:00,
2013-01-26 13:08:00,32.4,13.4,29.84,East,97,0.0,7.0,45,0.00,,,0.00,Wunderground v.1.15,2013-01-26 19:08:00,
2013-01-26 13:13:00,32.5,14.0,29.84,ESE,107,0.0,6.0,46,0.00,,,0.00,Wunderground v.1.15,2013-01-26 19:13:00,
2013-01-26 13:19:00,33.8,14.7,29.84,East,88,2.0,6.0,45,0.00,,,0.00,Wunderground v.1.15,2013-01-26 19:19:00,
2013-01-26 13:24:00,33.2,14.6,29.84,East,94,0.0,6.0,46,0.00,,,0.00,Wunderground v.1.15,2013-01-26 19:24:00,
2013-01-26 13:29:00,34.8,15.6,29.83,East,93,0.0,6.0,45,0.00,,,0.00,Wunderground v.1.15,2013-01-26 19:29:00,
2013-01-26 13:34:00,33.6,13.5,29.83,ENE,57,0.0,6.0,43,0.00,,,0.00,Wunderground v.1.15,2013-01-26 19:34:00,
2013-01-26 13:39:00,33.7,14.1,29.83,ENE,59,0.0,6.0,44,0.00,,,0.00,Wunderground v.1.15,2013-01-26 19:39:00,
2013-01-26 13:44:00,33.8,14.2,29.83,NE,53,0.0,7.0,44,0.00,,,0.00,Wunderground v.1.15,2013-01-26 19:44:00,
2013-01-26 13:49:00,33.9,14.8,29.83,NE,54,0.0,2.0,45,0.00,,,0.00,Wunderground v.1.15,2013-01-26 19:49:00,
2013-01-26 13:54:00,33.8,14.2,29.82,ENE,66,0.0,6.0,44,0.00,,,0.00,Wunderground v.1.15,2013-01-26 19:54:00,
2013-01-26 14:00:00,-999.9,-99.9,29.82,NE,53,1.0,1.0,45,0.00,,,0.00,Wunderground v.1.15,2013-01-26 20:00:00,
2013-01-26 14:06:00,34.3,14.6,29.82,NNE,24,3.0,4.0,44,0.00,,,0.00,Wunderground v.1.15,2013-01-26 20:06:00,
2013-01-26 14:11:00,34.4,14.2,29.81,ENE,67,2.0,3.0,43,0.00,,,0.00,Wunderground v.1.15,2013-01-26 20:11:00,
2013-01-26 14:16:00,34.7,14.5,29.81,East,93,12.0,12.0,43,0.00,,,0.00,Wunderground v.1.15,2013-01-26 20:16:00,
2013-01-26 14:21:00,34.6,14.4,29.81,ENE,71,3.0,5.0,43,0.00,,,0.00,Wunderground v.1.15,2013-01-26 20:21:00,
2013-01-26 14:27:00,34.6,14.4,29.80,East,82,0.0,11.0,43,0.00,,,0.00,Wunderground v.1.15,2013-01-26 20:27:00,
2013-01-26 14:33:00,34.6,14.4,29.80,East,98,5.0,6.0,43,0.00,,,0.00,Wunderground v.1.15,2013-01-26 20:33:00,
2013-01-26 14:38:00,34.9,15.2,29.80,East,93,0.0,7.0,44,0.00,,,0.00,Wunderground v.1.15,2013-01-26 20:38:00,
2013-01-26 14:44:00,35.3,15.0,29.81,ESE,119,2.0,7.0,43,0.00,,,0.00,Wunderground v.1.15,2013-01-26 20:44:00,
2013-01-26 14:49:00,35.4,15.1,29.81,East,79,7.0,8.0,43,0.00,,,0.00,Wunderground v.1.15,2013-01-26 20:49:00,
2013-01-26 14:54:00,35.3,14.5,29.80,East,94,6.0,8.0,42,0.00,,,0.00,Wunderground v.1.15,2013-01-26 20:54:00,
2013-01-26 14:59:00,35.5,14.6,29.81,ENE,78,0.0,8.0,42,0.00,,,0.00,Wunderground v.1.15,2013-01-26 20:59:00,
2013-01-26 15:04:00,35.8,14.4,29.80,ESE,113,0.0,8.0,41,0.00,,,0.00,Wunderground v.1.15,2013-01-26 21:04:00,
2013-01-26 15:10:00,35.9,14.5,29.80,East,84,3.0,3.0,41,0.00,,,0.00,Wunderground v.1.15,2013-01-26 21:10:00,
2013-01-26 15:16:00,35.9,13.9,29.80,ENE,74,3.0,7.0,40,0.00,,,0.00,Wunderground v.1.15,2013-01-26 21:16:00,
2013-01-26 15:21:00,36.1,13.5,29.80,ENE,76,5.0,5.0,39,0.00,,,0.00,Wunderground v.1.15,2013-01-26 21:21:00,
2013-01-26 15:26:00,35.9,13.9,29.80,ENE,78,6.0,8.0,40,0.00,,,0.00,Wunderground v.1.15,2013-01-26 21:26:00,
2013-01-26 15:32:00,36.1,14.1,29.80,NNE,32,6.0,6.0,40,0.00,,,0.00,Wunderground v.1.15,2013-01-26 21:32:00,
2013-01-26 15:37:00,36.1,14.1,29.80,ENE,57,0.0,6.0,40,0.00,,,0.00,Wunderground v.1.15,2013-01-26 21:37:00,
2013-01-26 15:42:00,36.2,13.6,29.80,ESE,115,0.0,3.0,39,0.00,,,0.00,Wunderground v.1.15,2013-01-26 21:42:00,
2013-01-26 15:47:00,36.2,13.6,29.80,ESE,112,6.0,8.0,39,0.00,,,0.00,Wunderground v.1.15,2013-01-26 21:47:00,
2013-01-26 15:52:00,36.3,14.3,29.80,East,93,1.0,6.0,40,0.00,,,0.00,Wunderground v.1.15,2013-01-26 21:52:00,
2013-01-26 15:59:00,36.6,15.1,29.80,ENE,76,0.0,6.0,41,0.00,,,0.00,Wunderground v.1.15,2013-01-26 21:59:00,
2013-01-26 16:04:00,36.5,14.4,29.80,ENE,71,0.0,7.0,40,0.00,,,0.00,Wunderground v.1.15,2013-01-26 22:04:00,
2013-01-26 16:10:00,36.6,14.5,29.80,ENE,69,3.0,3.0,40,0.00,,,0.00,Wunderground v.1.15,2013-01-26 22:10:00,
2013-01-26 16:15:00,36.2,14.7,29.80,East,94,9.0,10.0,41,0.00,,,0.00,Wunderground v.1.15,2013-01-26 22:15:00,
2013-01-26 16:20:00,36.0,14.0,29.80,NE,42,0.0,4.0,40,0.00,,,0.00,Wunderground v.1.15,2013-01-26 22:20:00,
2013-01-26 16:25:00,35.7,14.3,29.80,East,93,0.0,6.0,41,0.00,,,0.00,Wunderground v.1.15,2013-01-26 22:25:00,
2013-01-26 16:30:00,35.4,14.6,29.80,East,96,0.0,6.0,42,0.00,,,0.00,Wunderground v.1.15,2013-01-26 22:30:00,
2013-01-26 16:35:00,35.2,14.4,29.80,East,90,2.0,6.0,42,0.00,,,0.00,Wunderground v.1.15,2013-01-26 22:35:00,
2013-01-26 16:40:00,35.0,14.7,29.80,East,91,2.0,2.0,43,0.00,,,0.00,Wunderground v.1.15,2013-01-26 22:40:00,
2013-01-26 16:45:00,34.8,14.5,29.80,East,91,0.0,6.0,43,0.00,,,0.00,Wunderground v.1.15,2013-01-26 22:45:00,
2013-01-26 16:50:00,34.7,14.5,29.80,ESE,104,0.0,7.0,43,0.00,,,0.00,Wunderground v.1.15,2013-01-26 22:50:00,
2013-01-26 16:56:00,34.7,15.0,29.80,East,101,0.0,7.0,44,0.00,,,0.00,Wunderground v.1.15,2013-01-26 22:56:00,
2013-01-26 17:01:00,34.6,14.4,29.80,East,100,0.0,4.0,43,0.00,,,0.00,Wunderground v.1.15,2013-01-26 23:01:00,
2013-01-26 17:07:00,34.5,14.8,29.80,East,101,0.0,5.0,44,0.00,,,0.00,Wunderground v.1.15,2013-01-26 23:07:00,
2013-01-26 17:12:00,34.4,14.7,29.80,East,101,0.0,2.0,44,0.00,,,0.00,Wunderground v.1.15,2013-01-26 23:12:00,
2013-01-26 17:17:00,34.3,14.6,29.80,East,101,5.0,5.0,44,0.00,,,0.00,Wunderground v.1.15,2013-01-26 23:17:00,
2013-01-26 17:22:00,34.3,14.6,29.80,East,101,1.0,5.0,44,0.00,,,0.00,Wunderground v.1.15,2013-01-26 23:22:00,
2013-01-26 17:27:00,34.3,14.6,29.79,East,101,0.0,5.0,44,0.00,,,0.00,Wunderground v.1.15,2013-01-26 23:27:00,
2013-01-26 17:32:00,34.1,14.9,29.79,East,101,0.0,1.0,45,0.00,,,0.00,Wunderground v.1.15,2013-01-26 23:32:00,
2013-01-26 17:37:00,34.0,14.9,29.79,East,101,0.0,6.0,45,0.00,,,0.00,Wunderground v.1.15,2013-01-26 23:37:00,
2013-01-26 17:42:00,34.1,14.9,29.79,East,100,2.0,5.0,45,0.00,,,0.00,Wunderground v.1.15,2013-01-26 23:42:00,
2013-01-26 17:47:00,34.1,15.5,29.79,ESE,113,4.0,8.0,46,0.00,,,0.00,Wunderground v.1.15,2013-01-26 23:47:00,
2013-01-26 17:52:00,34.2,15.5,29.80,ESE,119,0.0,8.0,46,0.00,,,0.00,Wunderground v.1.15,2013-01-26 23:52:00,
2013-01-26 17:58:00,34.3,-99.9,29.79,ESE,120,0.0,8.0,255,0.00,,,0.00,Wunderground v.1.15,2013-01-26 23:58:00,
2013-01-26 18:03:00,34.3,15.6,29.79,ESE,108,0.0,6.0,46,0.00,,,0.00,Wunderground v.1.15,2013-01-27 00:03:00,
2013-01-26 18:08:00,34.3,15.6,29.79,ESE,103,1.0,7.0,46,0.00,,,0.00,Wunderground v.1.15,2013-01-27 00:08:00,
2013-01-26 18:14:00,34.4,15.2,29.79,ESE,120,5.0,8.0,45,0.00,,,0.00,Wunderground v.1.15,2013-01-27 00:14:00,
2013-01-26 18:19:00,34.4,15.7,29.79,East,94,0.0,8.0,46,0.00,,,0.00,Wunderground v.1.15,2013-01-27 00:19:00,
2013-01-26 18:25:00,34.4,15.7,29.80,East,91,2.0,5.0,46,0.00,,,0.00,Wunderground v.1.15,2013-01-27 00:25:00,
2013-01-26 18:30:00,34.5,15.8,29.80,East,101,0.0,2.0,46,0.00,,,0.00,Wunderground v.1.15,2013-01-27 00:30:00,
2013-01-26 18:35:00,34.3,16.1,29.79,East,90,0.0,6.0,47,0.00,,,0.00,Wunderground v.1.15,2013-01-27 00:35:00,
2013-01-26 18:40:00,34.0,16.3,29.79,East,88,2.0,4.0,48,0.00,,,0.00,Wunderground v.1.15,2013-01-27 00:40:00,
2013-01-26 18:46:00,33.6,16.9,29.80,East,94,6.0,6.0,50,0.00,,,0.00,Wunderground v.1.15,2013-01-27 00:46:00,
2013-01-26 18:51:00,33.5,16.8,29.80,East,92,7.0,9.0,50,0.00,,,0.00,Wunderground v.1.15,2013-01-27 00:51:00,
2013-01-26 18:56:00,33.5,18.2,29.79,East,86,1.0,9.0,53,0.00,,,0.00,Wunderground v.1.15,2013-01-27 00:56:00,
2013-01-26 19:01:00,33.2,17.0,29.80,ESE,103,4.0,9.0,51,0.00,,,0.00,Wunderground v.1.15,2013-01-27 01:01:00,
2013-01-26 19:06:00,33.1,17.4,29.79,East,96,8.0,13.0,52,0.00,,,0.00,Wunderground v.1.15,2013-01-27 01:06:00,
2013-01-26 19:11:00,33.1,17.4,29.79,East,98,1.0,6.0,52,0.00,,,0.00,Wunderground v.1.15,2013-01-27 01:11:00,
2013-01-26 19:16:00,32.9,17.6,29.79,ESE,106,4.0,12.0,53,0.00,,,0.00,Wunderground v.1.15,2013-01-27 01:16:00,
2013-01-26 19:21:00,33.7,18.4,29.79,ESE,121,7.0,8.0,53,0.00,,,0.00,Wunderground v.1.15,2013-01-27 01:21:00,
2013-01-26 19:27:00,32.6,17.3,29.79,ESE,107,6.0,13.0,53,0.00,,,0.00,Wunderground v.1.15,2013-01-27 01:27:00,
2013-01-26 19:32:00,32.4,17.6,29.79,East,98,7.0,9.0,54,0.00,,,0.00,Wunderground v.1.15,2013-01-27 01:32:00,
2013-01-26 19:38:00,32.3,17.5,29.79,East,97,8.0,14.0,54,0.00,,,0.00,Wunderground v.1.15,2013-01-27 01:38:00,
2013-01-26 19:43:00,-999.9,-99.9,29.79,ESE,108,11.0,11.0,55,0.00,,,0.00,Wunderground v.1.15,2013-01-27 01:43:00,
2013-01-26 19:48:00,32.0,17.6,29.79,East,99,5.0,11.0,55,0.00,,,0.00,Wunderground v.1.15,2013-01-27 01:48:00,
2013-01-26 19:53:00,31.9,18.0,29.78,ESE,111,4.0,12.0,56,0.00,,,0.00,Wunderground v.1.15,2013-01-27 01:53:00,
2013-01-26 19:58:00,31.7,18.2,29.78,ESE,107,9.0,12.0,57,0.00,,,0.00,Wunderground v.1.15,2013-01-27 01:58:00,
2013-01-26 20:03:00,31.7,18.2,29.79,ESE,116,7.0,14.0,57,0.00,,,0.00,Wunderground v.1.15,2013-01-27 02:03:00,
2013-01-26 20:08:00,31.6,18.1,29.79,ESE,105,5.0,14.0,57,0.00,,,0.00,Wunderground v.1.15,2013-01-27 02:08:00,
2013-01-26 20:13:00,31.6,17.7,29.79,East,101,7.0,11.0,56,0.00,,,0.00,Wunderground v.1.15,2013-01-27 02:13:00,
2013-01-26 20:19:00,31.4,17.9,29.78,ESE,102,0.0,11.0,57,0.00,,,0.00,Wunderground v.1.15,2013-01-27 02:19:00,
2013-01-26 20:24:00,31.4,17.9,29.78,ESE,110,0.0,9.0,57,0.00,,,0.00,Wunderground v.1.15,2013-01-27 02:24:00,
2013-01-26 20:30:00,31.5,17.6,29.78,ESE,112,0.0,4.0,56,0.00,,,0.00,Wunderground v.1.15,2013-01-27 02:30:00,
2013-01-26 20:35:00,31.4,17.5,29.78,ESE,105,0.0,11.0,56,0.00,,,0.00,Wunderground v.1.15,2013-01-27 02:35:00,
2013-01-26 20:40:00,31.7,17.8,29.78,ESE,104,7.0,7.0,56,0.00,,,0.00,Wunderground v.1.15,2013-01-27 02:40:00,
2013-01-26 20:45:00,31.4,17.5,29.78,ESE,109,4.0,9.0,56,0.00,,,0.00,Wunderground v.1.15,2013-01-27 02:45:00,
2013-01-26 20:50:00,31.4,17.5,29.78,East,100,5.0,9.0,56,0.00,,,0.00,Wunderground v.1.15,2013-01-27 02:50:00,
2013-01-26 20:55:00,31.4,17.5,29.79,East,96,6.0,12.0,56,0.00,,,0.00,Wunderground v.1.15,2013-01-27 02:55:00,
2013-01-26 21:01:00,31.4,17.5,29.79,East,98,0.0,5.0,56,0.00,,,0.00,Wunderground v.1.15,2013-01-27 03:01:00,
2013-01-26 21:06:00,31.4,-99.9,29.79,East,101,4.0,9.0,255,0.00,,,0.00,Wunderground v.1.15,2013-01-27 03:06:00,
2013-01-26 21:11:00,31.5,-99.9,29.79,East,97,9.0,9.0,255,0.00,,,0.00,Wunderground v.1.15,2013-01-27 03:11:00,
2013-01-26 21:16:00,-999.9,-99.9,29.79,ESE,102,8.0,11.0,56,0.00,,,0.00,Wunderground v.1.15,2013-01-27 03:16:00,
2013-01-26 21:21:00,31.5,17.6,29.79,ESE,107,6.0,6.0,56,0.00,,,0.00,Wunderground v.1.15,2013-01-27 03:21:00,
2013-01-26 21:27:00,31.4,17.5,29.79,East,97,8.0,11.0,56,0.00,,,0.00,Wunderground v.1.15,2013-01-27 03:27:00,
2013-01-26 21:32:00,31.3,17.8,29.79,ESE,107,4.0,4.0,57,0.00,,,0.00,Wunderground v.1.15,2013-01-27 03:32:00,
2013-01-26 21:37:00,31.1,17.6,29.79,ESE,103,4.0,9.0,57,0.00,,,0.00,Wunderground v.1.15,2013-01-27 03:37:00,
2013-01-26 21:42:00,31.2,17.7,29.79,ESE,102,4.0,4.0,57,0.00,,,0.00,Wunderground v.1.15,2013-01-27 03:42:00,
2013-01-26 21:49:00,31.0,17.9,29.79,East,100,2.0,9.0,58,0.00,,,0.00,Wunderground v.1.15,2013-01-27 03:49:00,
2013-01-26 21:55:00,30.8,18.1,29.79,ESE,115,2.0,8.0,59,0.00,,,0.00,Wunderground v.1.15,2013-01-27 03:55:00,
2013-01-26 22:00:00,30.8,18.1,29.79,ESE,105,5.0,5.0,59,0.00,,,0.00,Wunderground v.1.15,2013-01-27 04:00:00,
2013-01-26 22:05:00,30.5,17.9,29.78,East,97,1.0,9.0,59,0.00,,,0.00,Wunderground v.1.15,2013-01-27 04:05:00,
2013-01-26 22:10:00,30.4,18.2,29.79,East,94,8.0,8.0,60,0.00,,,0.00,Wunderground v.1.15,2013-01-27 04:10:00,
2013-01-26 22:17:00,30.3,18.1,29.79,ESE,104,6.0,9.0,60,0.00,,,0.00,Wunderground v.1.15,2013-01-27 04:17:00,
2013-01-26 22:22:00,30.3,18.1,29.78,ESE,103,5.0,8.0,60,0.00,,,0.00,Wunderground v.1.15,2013-01-27 04:22:00,
2013-01-26 22:27:00,30.3,18.1,29.79,East,98,4.0,9.0,60,0.00,,,0.00,Wunderground v.1.15,2013-01-27 04:27:00,
2013-01-26 22:33:00,30.2,18.0,29.79,East,94,4.0,7.0,60,0.00,,,0.00,Wunderground v.1.15,2013-01-27 04:33:00,
2013-01-26 22:39:00,30.1,17.9,29.79,East,93,0.0,7.0,60,0.00,,,0.00,Wunderground v.1.15,2013-01-27 04:39:00,
2013-01-26 22:44:00,30.2,17.6,29.79,East,98,0.0,8.0,59,0.00,,,0.00,Wunderground v.1.15,2013-01-27 04:44:00,
2013-01-26 22:49:00,30.2,18.0,29.78,East,101,0.0,8.0,60,0.00,,,0.00,Wunderground v.1.15,2013-01-27 04:49:00,
2013-01-26 22:54:00,30.0,17.8,29.79,East,101,2.0,5.0,60,0.00,,,0.00,Wunderground v.1.15,2013-01-27 04:54:00,
2013-01-26 22:59:00,29.8,18.0,29.79,East,97,0.0,7.0,61,0.00,,,0.00,Wunderground v.1.15,2013-01-27 04:59:00,
2013-01-26 23:00:00,29.7,17.9,29.78,East,95,6.0,6.0,61,0.00,,,0.00,Wunderground v.1.15,2013-01-27 05:00:00,
2013-01-26 23:01:00,29.7,17.9,29.78,East,89,4.0,6.0,61,0.00,,,0.00,Wunderground v.1.15,2013-01-27 05:01:00,
2013-01-26 23:02:00,29.7,17.9,29.78,East,91,6.0,6.0,61,0.00,,,0.00,Wunderground v.1.15,2013-01-27 05:02:00,
2013-01-26 23:03:00,29.8,18.0,29.78,East,90,0.0,7.0,61,0.00,,,0.00,Wunderground v.1.15,2013-01-27 05:03:00,
2013-01-26 23:08:00,29.6,17.8,29.78,ESE,105,6.0,7.0,61,0.00,,,0.00,Wunderground v.1.15,2013-01-27 05:08:00,
2013-01-26 23:14:00,29.5,18.1,29.78,East,100,6.0,11.0,62,0.00,,,0.00,Wunderground v.1.15,2013-01-27 05:14:00,
2013-01-26 23:19:00,29.4,18.3,29.78,ESE,105,6.0,11.0,63,0.00,,,0.00,Wunderground v.1.15,2013-01-27 05:19:00,
2013-01-26 23:24:00,29.4,18.3,29.78,East,95,0.0,11.0,63,0.00,,,0.00,Wunderground v.1.15,2013-01-27 05:24:00,
2013-01-26 23:30:00,29.4,18.3,29.78,ESE,103,7.0,7.0,63,0.00,,,0.00,Wunderground v.1.15,2013-01-27 05:30:00,
2013-01-26 23:35:00,29.0,18.3,29.78,East,96,1.0,9.0,64,0.00,,,0.00,Wunderground v.1.15,2013-01-27 05:35:00,
2013-01-26 23:40:00,29.0,18.3,29.78,ESE,107,4.0,7.0,64,0.00,,,0.00,Wunderground v.1.15,2013-01-27 05:40:00,
2013-01-26 23:45:00,29.0,18.3,29.77,ESE,107,9.0,9.0,64,0.00,,,0.00,Wunderground v.1.15,2013-01-27 05:45:00,
2013-01-26 23:50:00,29.1,18.4,29.77,ESE,102,8.0,8.0,64,0.00,,,0.00,Wunderground v.1.15,2013-01-27 05:50:00,
2013-01-26 23:55:00,29.1,18.4,29.77,East,100,6.0,11.0,64,0.00,,,0.00,Wunderground v.1.15,2013-01-27 05:55:00,